Weather History for Indianapolis, IN

Change the Weather History Date:

Thursday, November 7, 2013

  Actual Average (KEYE) Record (KEYE)
Temperature  
Mean Temperature 39 °F 48 °F  
Max Temperature 48 °F 56 °F 66 °F (2001)
Min Temperature 30 °F 39 °F 26 °F (1998)
Degree Days  
Heating Degree Days 26 17  
Month to date heating degree days 114  
Since 1 July heating degree days 506  
Cooling Degree Days 0 0  
Month to date cooling degree days 0  
Year to date cooling degree days 1058  
Moisture  
Dew Point 29 °F    
Average Humidity 68    
Maximum Humidity 88    
Minimum Humidity 36    
Precipitation  
Precipitation 0.08 in 0.11 in 2.95 in (1996)
Month to date precipitation 0.89  
Year to date precipitation 34.90  
Sea Level Pressure  
Sea Level Pressure 30.22 in    
Wind  
Wind Speed 8 mph (West)    
Max Wind Speed 16 mph    
Max Gust Speed 25 mph    
Visibility 10 miles    
Events      
T = Trace of Precipitation, MM = Missing Value Source: NWS Daily Summary

Daily Weather History Graph

Daily Weather History Graph

Search for Another Location

Airport:

Trip Planner

Search our weather history database for the weather conditions in past years. The results will help you decide how hot, cold, wet, or windy it might be!

Date:

Astronomy

Nov. 07, 2013 Rise Set
Actual Time 7:21 AM EST 5:35 PM EST
Civil Twilight 6:52 AM EST 6:04 PM EST
Nautical Twilight 6:20 AM EST 6:36 PM EST
Astronomical Twilight 5:48 AM EST 7:08 PM EST
Moon 11:29 AM EST (11/7) 9:46 PM EST (11/7)
Length of Visible Light 11h 11m
Length of Day
10h 14m
Waxing Crescent, 22% of the Moon is Illuminated
Nov 7
Waxing Crescent
Nov 10
First Quarter
Nov 17
Full
Nov 25
Last Quarter
Dec 2
New

Hourly Weather History & Observations

Time (EST) Temp. Windchill Dew Point Humidity Pressure Visibility Wind Dir Wind Speed Gust Speed Precip Events Conditions
12:15 AM 40.6 °F 36.0 °F 36.0 °F 83% 30.12 in 10.0 mi WNW 6.9 mph - N/A   Scattered Clouds
12:35 AM 40.1 °F 36.1 °F 35.6 °F 84% 30.14 in 10.0 mi WNW 5.8 mph - N/A   Clear
12:55 AM 40.3 °F 34.9 °F 35.8 °F 84% 30.14 in 10.0 mi WNW 8.1 mph - N/A   Mostly Cloudy
1:15 AM 40.5 °F 34.6 °F 35.6 °F 83% 30.14 in 10.0 mi WNW 9.2 mph - N/A   Overcast
1:35 AM 40.5 °F 35.8 °F 35.8 °F 83% 30.14 in 10.0 mi WNW 6.9 mph - N/A   Overcast
1:55 AM 40.1 °F 34.1 °F 35.6 °F 84% 30.14 in 10.0 mi WNW 9.2 mph 16.1 mph N/A   Overcast
2:15 AM 39.2 °F 34.2 °F 34.7 °F 84% 30.14 in 10.0 mi WNW 6.9 mph - N/A   Mostly Cloudy
2:55 AM 36.9 °F 30.7 °F 32.9 °F 86% 30.15 in 10.0 mi WNW 8.1 mph - N/A   Scattered Clouds
3:15 AM 36.0 °F 30.3 °F 32.2 °F 86% 30.15 in 10.0 mi WNW 6.9 mph - N/A   Clear
3:35 AM 35.6 °F 29.2 °F 32.0 °F 87% 30.16 in 10.0 mi WNW 8.1 mph - N/A   Clear
3:55 AM 34.9 °F 29.0 °F 31.6 °F 88% 30.17 in 10.0 mi WNW 6.9 mph - N/A   Clear
4:15 AM 34.3 °F 29.2 °F 30.9 °F 87% 30.17 in 10.0 mi WNW 5.8 mph - N/A   Clear
4:35 AM 34.0 °F 28.0 °F 30.2 °F 86% 30.18 in 10.0 mi WNW 6.9 mph - N/A   Clear
4:55 AM 33.4 °F 28.1 °F 29.7 °F 86% 30.19 in 10.0 mi WNW 5.8 mph - N/A   Clear
5:15 AM 33.3 °F 27.9 °F 29.1 °F 85% 30.19 in 10.0 mi WNW 5.8 mph - N/A   Clear
5:35 AM 32.9 °F 27.5 °F 28.6 °F 84% 30.21 in 10.0 mi NW 5.8 mph - N/A   Clear
5:55 AM 32.5 °F 27.1 °F 28.2 °F 84% 30.21 in 10.0 mi WNW 5.8 mph - N/A   Clear
6:15 AM 32.0 °F 27.5 °F 27.9 °F 85% 30.22 in 10.0 mi WNW 4.6 mph - N/A   Clear
6:35 AM 32.0 °F 27.5 °F 27.5 °F 83% 30.23 in 10.0 mi WNW 4.6 mph - N/A   Clear
6:55 AM 32.0 °F 27.5 °F 27.1 °F 82% 30.23 in 10.0 mi WNW 4.6 mph - N/A   Clear
7:15 AM 31.6 °F - 26.6 °F 82% 30.24 in 10.0 mi Calm Calm - N/A   Clear
7:35 AM 30.9 °F - 26.4 °F 83% 30.24 in 10.0 mi Calm Calm - N/A   Clear
7:55 AM 31.3 °F 27.9 °F 27.3 °F 85% 30.25 in 10.0 mi West 3.5 mph - N/A   Clear
8:15 AM 32.0 °F 28.7 °F 27.9 °F 85% 30.26 in 10.0 mi WNW 3.5 mph - N/A   Clear
8:35 AM 33.4 °F 28.1 °F 28.4 °F 82% 30.27 in 10.0 mi West 5.8 mph - N/A   Clear
8:55 AM 34.5 °F 28.6 °F 28.2 °F 78% 30.27 in 10.0 mi West 6.9 mph - N/A   Clear
9:15 AM 35.8 °F 30.1 °F 28.8 °F 76% 30.28 in 10.0 mi West 6.9 mph - N/A   Clear
9:35 AM 36.9 °F 32.2 °F 28.8 °F 72% 30.28 in 10.0 mi WNW 5.8 mph - N/A   Clear
9:55 AM 38.7 °F 34.3 °F 29.1 °F 69% 30.29 in 10.0 mi West 5.8 mph - N/A   Clear
10:15 AM 40.3 °F 35.5 °F 28.9 °F 64% 30.28 in 10.0 mi WNW 6.9 mph - N/A   Clear
10:35 AM 41.0 °F 38.0 °F 27.3 °F 58% 30.30 in 10.0 mi WNW 4.6 mph - N/A   Clear
10:55 AM 41.9 °F 37.5 °F 26.8 °F 55% 30.30 in 10.0 mi WNW 6.9 mph - N/A   Clear
11:15 AM 42.6 °F 36.8 °F 27.3 °F 55% 30.30 in 10.0 mi West 10.4 mph - N/A   Clear
11:35 AM 43.9 °F 39.3 °F 27.3 °F 52% 30.28 in 10.0 mi West 8.1 mph - N/A   Clear
11:55 AM 44.6 °F 40.7 °F 26.1 °F 48% 30.28 in 10.0 mi WNW 6.9 mph - N/A   Clear
12:15 PM 45.1 °F 40.8 °F 25.3 °F 46% 30.28 in 10.0 mi WNW 8.1 mph - N/A   Clear
12:35 PM 45.9 °F 40.8 °F 25.2 °F 44% 30.27 in 10.0 mi WSW 10.4 mph 16.1 mph N/A   Clear
12:55 PM 46.4 °F 40.7 °F 24.1 °F 42% 30.26 in 10.0 mi WSW 12.7 mph 18.4 mph N/A   Clear
1:15 PM 47.3 °F - 24.6 °F 41% 30.25 in 10.0 mi West 12.7 mph 18.4 mph N/A   Clear
1:35 PM 47.7 °F - 23.9 °F 39% 30.24 in 10.0 mi West 13.8 mph 18.4 mph N/A   Clear
1:55 PM 47.5 °F - 23.0 °F 38% 30.23 in 10.0 mi West 11.5 mph 20.7 mph N/A   Clear
2:15 PM 47.8 °F - 23.2 °F 38% 30.23 in 10.0 mi WSW 11.5 mph 21.9 mph N/A   Clear
2:35 PM 48.2 °F - 22.5 °F 36% 30.23 in 10.0 mi West 15.0 mph 20.7 mph N/A   Clear
2:55 PM 47.8 °F - 23.0 °F 38% 30.22 in 10.0 mi West 12.7 mph 20.7 mph N/A   Clear
3:15 PM 46.4 °F 40.7 °F 23.4 °F 40% 30.22 in 10.0 mi West 12.7 mph 25.3 mph N/A   Scattered Clouds
3:35 PM 46.8 °F - 23.4 °F 40% 30.21 in 10.0 mi WSW 11.5 mph 16.1 mph N/A   Mostly Cloudy
3:55 PM 47.3 °F - 23.5 °F 39% 30.21 in 10.0 mi West 11.5 mph 18.4 mph N/A   Scattered Clouds
4:15 PM 46.8 °F - 23.7 °F 40% 30.21 in 10.0 mi WSW 13.8 mph 21.9 mph N/A   Clear
4:35 PM 45.5 °F 39.9 °F 25.9 °F 46% 30.21 in 10.0 mi West 11.5 mph 19.6 mph N/A   Mostly Cloudy
4:55 PM 44.8 °F 39.4 °F 27.5 °F 51% 30.21 in 10.0 mi West 10.4 mph 16.1 mph N/A   Overcast
5:15 PM 44.6 °F 39.2 °F 28.4 °F 53% 30.22 in 10.0 mi West 10.4 mph - N/A   Overcast
5:55 PM 43.7 °F 38.6 °F 30.2 °F 59% 30.21 in 10.0 mi WSW 9.2 mph - N/A   Overcast
6:15 PM 43.3 °F 39.9 °F 30.7 °F 61% 30.21 in 10.0 mi WSW 5.8 mph - N/A   Overcast
6:35 PM 43.2 °F 39.0 °F 31.1 °F 62% 30.21 in 10.0 mi WSW 6.9 mph - N/A   Overcast
6:55 PM 42.4 °F 38.8 °F 30.7 °F 63% 30.21 in 10.0 mi WSW 5.8 mph - N/A   Mostly Cloudy
7:15 PM 42.1 °F 39.2 °F 31.3 °F 66% 30.21 in 10.0 mi WSW 4.6 mph - N/A   Mostly Cloudy
7:35 PM 42.8 °F 39.3 °F 32.0 °F 66% 30.21 in 10.0 mi WSW 5.8 mph - N/A   Overcast
7:55 PM 40.6 °F 37.5 °F 31.1 °F 69% 30.21 in 10.0 mi SW 4.6 mph - N/A   Scattered Clouds
8:15 PM 40.1 °F 36.9 °F 31.6 °F 72% 30.20 in 10.0 mi SW 4.6 mph - N/A   Mostly Cloudy
8:35 PM 40.5 °F 33.6 °F 32.0 °F 72% 30.21 in 10.0 mi West 11.5 mph 16.1 mph N/A   Mostly Cloudy
8:55 PM 40.1 °F 32.7 °F 32.4 °F 74% 30.21 in 10.0 mi WNW 12.7 mph 18.4 mph N/A   Scattered Clouds
9:15 PM 39.0 °F 31.4 °F 32.2 °F 76% 30.22 in 10.0 mi WNW 12.7 mph 24.2 mph N/A   Mostly Cloudy
9:35 PM 37.0 °F 29.8 °F 30.2 °F 76% 30.23 in 10.0 mi WNW 10.4 mph 18.4 mph N/A   Overcast
9:55 PM 36.5 °F 27.0 °F 29.7 °F 76% 30.25 in 10.0 mi NW 16.1 mph 21.9 mph N/A   Overcast
10:15 PM 35.1 °F 27.4 °F 28.0 °F 76% 30.25 in 10.0 mi WNW 10.4 mph 18.4 mph N/A   Overcast
10:35 PM 34.2 °F 26.2 °F 27.9 °F 78% 30.25 in 10.0 mi WNW 10.4 mph - N/A   Mostly Cloudy
10:55 PM 33.1 °F 25.5 °F 27.9 °F 81% 30.26 in 10.0 mi West 9.2 mph - N/A   Clear
11:15 PM 32.5 °F 25.5 °F 27.7 °F 82% 30.26 in 10.0 mi WNW 8.1 mph 16.1 mph N/A   Clear
11:35 PM 32.0 °F 24.2 °F 27.5 °F 83% 30.27 in 10.0 mi West 9.2 mph - N/A   Clear
11:55 PM 32.0 °F 24.8 °F 27.5 °F 83% 30.27 in 10.0 mi WNW 8.1 mph - N/A   Clear